Time;durP1;ratioP1;P1;durP2;ratioP2;P2;SDS_P1;SDS_P2;PMS_P1;PMS_P2;Temp;Humidity;BMP_temperature;BMP_pressure;BME280_temperature;BME280_humidity;BME280_pressure;Samples;Min_cycle;Max_cycle;Signal;HPM_P1;HPM_P2
2021/07/04 00:01:08;;;;;;;9.40;8.70;;;;;;;;;;5054651;28;20271;-83
2021/07/04 00:03:33;;;;;;;8.93;8.23;;;;;;;;;;5065400;28;20074;-83
2021/07/04 00:06:01;;;;;;;10.15;9.07;;;;;;;;;;5074647;28;20052;-83
2021/07/04 00:08:27;;;;;;;9.60;8.73;;;;;;;;;;5065062;28;20024;-83
2021/07/04 00:10:58;;;;;;;9.60;8.70;;;;;;;;;;5056702;28;20025;-82
2021/07/04 00:13:24;;;;;;;10.00;9.10;;;;;;;;;;5074912;28;20012;-83
2021/07/04 00:15:49;;;;;;;8.40;7.55;;;;;;;;;;5074197;28;20040;-82
2021/07/04 00:18:16;;;;;;;9.77;8.77;;;;;;;;;;5072749;28;20055;-82
2021/07/04 00:20:46;;;;;;;10.38;9.30;;;;;;;;;;5074721;28;20029;-82
2021/07/04 00:23:11;;;;;;;9.60;8.80;;;;;;;;;;5075033;28;20012;-83
2021/07/04 00:25:39;;;;;;;9.50;8.80;;;;;;;;;;5066080;28;20462;-83
2021/07/04 00:28:07;;;;;;;9.95;9.05;;;;;;;;;;5054865;28;20135;-83
2021/07/04 00:30:33;;;;;;;9.77;8.80;;;;;;;;;;5054676;28;20067;-82
2021/07/04 00:32:58;;;;;;;9.80;8.82;;;;;;;;;;5053476;28;20048;-82
2021/07/04 00:35:26;;;;;;;9.32;8.52;;;;;;;;;;5055090;28;20025;-82
2021/07/04 00:37:54;;;;;;;9.98;8.98;;;;;;;;;;5054895;28;20473;-82
2021/07/04 00:40:20;;;;;;;10.07;9.07;;;;;;;;;;5068556;28;20484;-82
2021/07/04 00:42:45;;;;;;;10.43;9.20;;;;;;;;;;5068590;28;20024;-83
2021/07/04 00:45:16;;;;;;;9.45;8.63;;;;;;;;;;5073482;28;20032;-83
2021/07/04 00:47:41;;;;;;;9.85;8.95;;;;;;;;;;5092221;28;20017;-83
2021/07/04 00:50:06;;;;;;;10.10;8.73;;;;;;;;;;5096714;28;20036;-82
2021/07/04 00:52:32;;;;;;;8.85;7.95;;;;;;;;;;5080706;28;20020;-83
2021/07/04 00:54:58;;;;;;;9.85;7.68;;;;;;;;;;5072610;28;20028;-83
2021/07/04 00:57:23;;;;;;;8.85;8.02;;;;;;;;;;5073783;28;20035;-83
2021/07/04 00:59:48;;;;;;;9.48;8.45;;;;;;;;;;5058321;28;20037;-83
2021/07/04 01:02:13;;;;;;;9.18;8.38;;;;;;;;;;5054139;28;20009;-83
2021/07/04 01:04:41;;;;;;;8.18;7.47;;;;;;;;;;5053471;28;20094;-82
2021/07/04 01:07:06;;;;;;;8.15;7.45;;;;;;;;;;5053879;28;20017;-82
2021/07/04 01:09:32;;;;;;;9.98;9.10;;;;;;;;;;5093473;28;20031;-82
2021/07/04 01:11:57;;;;;;;9.73;8.93;;;;;;;;;;5074055;28;20029;-82
2021/07/04 01:14:27;;;;;;;9.73;8.70;;;;;;;;;;5073736;28;20063;-82
2021/07/04 01:16:52;;;;;;;9.52;8.73;;;;;;;;;;5074066;28;20052;-82
2021/07/04 01:19:18;;;;;;;9.95;9.02;;;;;;;;;;5072880;28;20125;-82
2021/07/04 01:21:44;;;;;;;8.52;7.82;;;;;;;;;;5071257;28;20480;-82
2021/07/04 01:24:12;;;;;;;9.88;8.20;;;;;;;;;;5072735;28;20446;-82
2021/07/04 01:26:38;;;;;;;9.43;8.45;;;;;;;;;;5073103;28;20020;-82
2021/07/04 01:29:03;;;;;;;9.10;8.30;;;;;;;;;;5072816;28;20102;-82
2021/07/04 01:31:29;;;;;;;8.70;7.80;;;;;;;;;;5072336;28;20332;-82
2021/07/04 01:33:54;;;;;;;9.27;8.35;;;;;;;;;;5073608;28;20028;-82
2021/07/04 01:36:19;;;;;;;9.97;9.00;;;;;;;;;;5073724;28;20040;-82
2021/07/04 01:38:44;;;;;;;9.60;8.70;;;;;;;;;;5062429;28;20273;-82
2021/07/04 01:41:10;;;;;;;9.77;8.87;;;;;;;;;;5057549;28;20017;-82
2021/07/04 01:43:36;;;;;;;9.77;8.88;;;;;;;;;;5071731;28;20596;-82
2021/07/04 01:46:01;;;;;;;9.88;9.05;;;;;;;;;;5072525;28;20036;-82
2021/07/04 01:48:28;;;;;;;10.02;9.23;;;;;;;;;;5073479;28;20008;-82
2021/07/04 01:50:54;;;;;;;9.77;8.88;;;;;;;;;;5073590;28;20355;-82
2021/07/04 01:53:20;;;;;;;9.88;8.88;;;;;;;;;;5072560;28;20027;-83
2021/07/04 01:55:45;;;;;;;10.13;9.15;;;;;;;;;;5072704;28;20103;-83
2021/07/04 01:58:11;;;;;;;10.23;9.25;;;;;;;;;;5073088;28;20017;-82
2021/07/04 02:00:36;;;;;;;10.25;9.25;;;;;;;;;;5072568;28;20098;-82
2021/07/04 02:03:03;;;;;;;10.80;8.95;;;;;;;;;;5072499;28;20047;-82
2021/07/04 02:05:29;;;;;;;13.30;9.20;;;;;;;;;;5072859;28;20044;-82
2021/07/04 02:07:54;;;;;;;10.90;9.20;;;;;;;;;;5072264;28;20036;-82
2021/07/04 02:10:24;;;;;;;9.65;8.82;;;;;;;;;;5073369;28;20115;-83
2021/07/04 02:12:49;;;;;;;9.45;8.57;;;;;;;;;;5072186;28;20107;-82
2021/07/04 02:15:16;;;;;;;9.93;9.02;;;;;;;;;;5073202;28;20104;-82
2021/07/04 02:17:41;;;;;;;9.40;8.50;;;;;;;;;;5072975;28;20052;-82
2021/07/04 02:20:25;;;;;;;10.50;8.70;;;;;;;;;;5072133;28;20454;-82
2021/07/04 02:22:50;;;;;;;8.98;8.15;;;;;;;;;;5054282;28;20427;-83
2021/07/04 02:25:16;;;;;;;9.10;8.20;;;;;;;;;;5052761;28;20112;-82
2021/07/04 02:27:41;;;;;;;9.57;8.30;;;;;;;;;;5052507;28;20625;-82
2021/07/04 02:30:06;;;;;;;9.13;8.33;;;;;;;;;;5053055;28;20264;-82
2021/07/04 02:32:32;;;;;;;9.70;8.68;;;;;;;;;;5052946;28;20333;-83
2021/07/04 02:34:57;;;;;;;9.05;8.25;;;;;;;;;;5052586;28;20571;-82
2021/07/04 02:37:22;;;;;;;8.85;8.15;;;;;;;;;;5052618;28;20576;-82
2021/07/04 02:39:47;;;;;;;8.97;8.17;;;;;;;;;;5055393;28;20024;-82
2021/07/04 02:42:12;;;;;;;9.10;8.00;;;;;;;;;;5053792;28;20285;-82
2021/07/04 02:44:38;;;;;;;10.23;8.17;;;;;;;;;;5055758;28;20252;-82
2021/07/04 02:47:03;;;;;;;7.93;7.27;;;;;;;;;;5073971;28;20266;-82
2021/07/04 02:49:28;;;;;;;8.70;7.70;;;;;;;;;;5075345;28;20592;-82
2021/07/04 02:51:54;;;;;;;11.13;8.23;;;;;;;;;;5076873;28;20541;-82
2021/07/04 02:54:24;;;;;;;7.23;6.63;;;;;;;;;;5075781;28;20277;-82
2021/07/04 02:56:49;;;;;;;7.53;6.78;;;;;;;;;;5076332;28;20254;-83
2021/07/04 02:59:14;;;;;;;8.30;7.60;;;;;;;;;;5074787;28;20029;-82
2021/07/04 03:01:39;;;;;;;8.93;8.13;;;;;;;;;;5075955;28;20255;-82
2021/07/04 03:04:04;;;;;;;7.20;6.50;;;;;;;;;;5075747;28;20262;-82
2021/07/04 03:06:30;;;;;;;8.40;7.72;;;;;;;;;;5074908;28;20052;-82
2021/07/04 03:08:55;;;;;;;8.37;7.70;;;;;;;;;;5068927;28;20484;-82
2021/07/04 03:11:20;;;;;;;7.87;7.07;;;;;;;;;;5071231;28;20275;-83
2021/07/04 03:13:47;;;;;;;7.32;6.72;;;;;;;;;;5055725;28;20271;-83
2021/07/04 03:16:13;;;;;;;8.18;7.45;;;;;;;;;;5055362;28;20074;-83
2021/07/04 03:18:38;;;;;;;8.33;7.73;;;;;;;;;;5056034;28;20335;-83
2021/07/04 03:21:03;;;;;;;8.70;8.00;;;;;;;;;;5057883;28;20707;-83
2021/07/04 03:23:28;;;;;;;8.45;7.75;;;;;;;;;;5075555;28;20699;-83
2021/07/04 03:25:54;;;;;;;8.93;6.50;;;;;;;;;;5075471;28;20348;-83
2021/07/04 03:28:22;;;;;;;7.53;6.45;;;;;;;;;;5074736;28;20023;-82
2021/07/04 03:30:47;;;;;;;7.47;6.85;;;;;;;;;;5075666;28;20103;-83
2021/07/04 03:33:13;;;;;;;8.20;7.57;;;;;;;;;;5074928;28;20119;-83
2021/07/04 03:35:39;;;;;;;7.93;7.32;;;;;;;;;;5075709;28;20021;-82
2021/07/04 03:38:04;;;;;;;8.60;7.80;;;;;;;;;;5075916;28;20336;-83
2021/07/04 03:40:29;;;;;;;8.57;7.77;;;;;;;;;;5074988;28;20086;-83
2021/07/04 03:42:54;;;;;;;10.17;7.57;;;;;;;;;;5075738;28;20251;-83
2021/07/04 03:45:19;;;;;;;7.95;7.15;;;;;;;;;;5075482;28;20251;-82
2021/07/04 03:47:45;;;;;;;7.63;7.03;;;;;;;;;;5075724;28;20429;-82
2021/07/04 03:50:10;;;;;;;7.72;6.93;;;;;;;;;;5074816;28;20764;-83
2021/07/04 03:52:36;;;;;;;9.32;8.18;;;;;;;;;;5075417;28;20021;-83
2021/07/04 03:55:03;;;;;;;7.43;6.68;;;;;;;;;;5074705;28;20030;-83
2021/07/04 03:57:30;;;;;;;8.65;7.85;;;;;;;;;;5076365;28;20020;-83
2021/07/04 04:00:02;;;;;;;8.27;7.32;;;;;;;;;;5057895;28;20025;-82
2021/07/04 04:02:29;;;;;;;9.63;8.57;;;;;;;;;;5060916;28;20079;-82
2021/07/04 04:04:55;;;;;;;9.25;8.35;;;;;;;;;;5062107;28;20108;-82
2021/07/04 04:07:23;;;;;;;7.95;7.25;;;;;;;;;;5058592;28;20017;-82
2021/07/04 04:09:51;;;;;;;9.48;8.00;;;;;;;;;;5055882;28;20048;-83
2021/07/04 04:12:18;;;;;;;7.85;7.13;;;;;;;;;;5058374;28;20455;-83
2021/07/04 04:14:43;;;;;;;7.72;6.97;;;;;;;;;;5075892;28;20028;-83
2021/07/04 04:17:09;;;;;;;7.80;7.10;;;;;;;;;;5075452;28;20333;-83
2021/07/04 04:19:34;;;;;;;6.93;6.38;;;;;;;;;;5075330;28;20356;-83
2021/07/04 04:22:02;;;;;;;8.60;7.70;;;;;;;;;;5073908;28;20437;-83
2021/07/04 04:24:27;;;;;;;8.57;7.68;;;;;;;;;;5074881;28;20016;-83
2021/07/04 04:26:52;;;;;;;7.50;6.82;;;;;;;;;;5074370;28;20440;-83
2021/07/04 04:29:18;;;;;;;8.02;7.32;;;;;;;;;;5074982;28;20139;-83
2021/07/04 04:31:43;;;;;;;8.63;7.93;;;;;;;;;;5073218;28;20024;-83
2021/07/04 04:34:09;;;;;;;8.75;7.78;;;;;;;;;;5075735;28;20316;-83
2021/07/04 04:36:34;;;;;;;9.43;8.52;;;;;;;;;;5075020;28;20111;-84
2021/07/04 04:39:00;;;;;;;9.60;8.18;;;;;;;;;;5070721;28;20107;-83
2021/07/04 04:41:25;;;;;;;9.20;8.40;;;;;;;;;;5069361;28;20017;-84
2021/07/04 04:43:50;;;;;;;8.77;7.57;;;;;;;;;;5054679;28;20092;-74
2021/07/04 04:46:15;;;;;;;9.00;7.30;;;;;;;;;;5054349;28;20633;-73
2021/07/04 04:48:43;;;;;;;8.65;7.85;;;;;;;;;;5054563;28;20814;-74
2021/07/04 04:51:08;;;;;;;9.25;7.28;;;;;;;;;;5067527;28;20031;-73
2021/07/04 04:53:33;;;;;;;11.83;7.77;;;;;;;;;;5074250;28;20016;-76
2021/07/04 04:56:01;;;;;;;11.63;7.40;;;;;;;;;;5074329;28;20267;-77
2021/07/04 04:58:28;;;;;;;11.10;8.88;;;;;;;;;;5070141;28;20266;-76
2021/07/04 05:00:53;;;;;;;9.48;8.48;;;;;;;;;;5067497;28;20033;-76
2021/07/04 05:03:18;;;;;;;10.50;8.47;;;;;;;;;;5053887;28;20338;-76
2021/07/04 05:05:43;;;;;;;9.00;8.20;;;;;;;;;;5053018;28;20613;-76
2021/07/04 05:08:09;;;;;;;9.98;8.98;;;;;;;;;;5073785;28;20708;-76
2021/07/04 05:10:37;;;;;;;9.27;8.00;;;;;;;;;;5073473;28;20051;-77
2021/07/04 05:13:04;;;;;;;8.73;7.95;;;;;;;;;;5063497;28;20029;-77
2021/07/04 05:15:29;;;;;;;8.70;7.70;;;;;;;;;;5062103;28;20042;-77
2021/07/04 05:17:57;;;;;;;9.27;8.32;;;;;;;;;;5072859;28;20111;-76
2021/07/04 05:20:24;;;;;;;13.50;8.27;;;;;;;;;;5073070;28;20024;-76
2021/07/04 05:22:49;;;;;;;9.40;8.50;;;;;;;;;;5073673;28;20034;-76
2021/07/04 05:25:15;;;;;;;8.57;7.83;;;;;;;;;;5073576;28;20054;-74
2021/07/04 05:27:40;;;;;;;9.13;8.00;;;;;;;;;;5072990;28;20710;-75
2021/07/04 05:30:06;;;;;;;9.23;8.07;;;;;;;;;;5070242;28;20024;-74
2021/07/04 05:32:31;;;;;;;9.65;8.75;;;;;;;;;;5073206;28;20082;-74
2021/07/04 05:34:58;;;;;;;10.02;8.95;;;;;;;;;;5073748;28;20159;-74
2021/07/04 05:37:23;;;;;;;9.55;8.60;;;;;;;;;;5071963;28;20028;-74
2021/07/04 05:39:48;;;;;;;11.20;8.47;;;;;;;;;;5053198;28;20090;-74
2021/07/04 05:42:13;;;;;;;10.70;8.93;;;;;;;;;;5055214;28;20433;-75
2021/07/04 05:44:41;;;;;;;9.70;8.70;;;;;;;;;;5072984;28;20043;-75
2021/07/04 05:47:07;;;;;;;9.15;8.07;;;;;;;;;;5073063;28;20016;-75
2021/07/04 05:49:32;;;;;;;8.95;8.05;;;;;;;;;;5071192;28;20390;-74
2021/07/04 05:51:58;;;;;;;9.48;8.50;;;;;;;;;;5073294;28;20047;-74
2021/07/04 05:54:23;;;;;;;9.27;8.23;;;;;;;;;;5060694;28;20021;-74
2021/07/04 05:56:48;;;;;;;9.17;8.23;;;;;;;;;;5053074;28;20262;-74
2021/07/04 05:59:16;;;;;;;8.88;8.20;;;;;;;;;;5052920;28;20272;-74
2021/07/04 06:01:41;;;;;;;9.73;8.75;;;;;;;;;;5059148;28;20021;-74
2021/07/04 06:04:06;;;;;;;9.82;8.93;;;;;;;;;;5072988;28;20027;-74
2021/07/04 06:06:32;;;;;;;8.25;7.45;;;;;;;;;;5072428;28;20038;-74
2021/07/04 06:08:59;;;;;;;10.70;8.00;;;;;;;;;;5065634;28;20044;-74
2021/07/04 06:11:25;;;;;;;10.13;7.93;;;;;;;;;;5062205;28;20428;-74
2021/07/04 06:13:50;;;;;;;9.30;8.18;;;;;;;;;;5069908;28;20017;-74
2021/07/04 06:16:15;;;;;;;9.18;8.27;;;;;;;;;;5071509;28;20116;-74
2021/07/04 06:18:40;;;;;;;8.43;7.83;;;;;;;;;;5075524;28;20025;-75
2021/07/04 06:21:08;;;;;;;8.67;7.80;;;;;;;;;;5076416;28;20255;-74
2021/07/04 06:23:33;;;;;;;11.40;7.80;;;;;;;;;;5072769;28;20746;-74
2021/07/04 06:26:01;;;;;;;9.15;8.25;;;;;;;;;;5076308;28;20020;-74
2021/07/04 06:28:28;;;;;;;9.95;8.50;;;;;;;;;;5075784;28;20035;-74
2021/07/04 06:30:53;;;;;;;9.65;8.68;;;;;;;;;;5076818;28;20348;-74
2021/07/04 06:33:19;;;;;;;8.90;8.20;;;;;;;;;;5076364;28;20107;-74
2021/07/04 06:35:44;;;;;;;8.37;7.57;;;;;;;;;;5076798;28;20295;-74
2021/07/04 06:38:09;;;;;;;9.75;8.20;;;;;;;;;;5075795;28;20357;-75
2021/07/04 06:40:34;;;;;;;7.63;7.00;;;;;;;;;;5075286;28;20381;-74
2021/07/04 06:42:59;;;;;;;7.80;7.13;;;;;;;;;;5063140;28;20270;-75
2021/07/04 06:45:25;;;;;;;10.27;8.00;;;;;;;;;;5075369;28;20312;-74
2021/07/04 06:47:50;;;;;;;7.83;7.03;;;;;;;;;;5074493;28;20344;-74
2021/07/04 06:50:19;;;;;;;8.57;7.78;;;;;;;;;;5076483;28;20304;-74
2021/07/04 06:52:45;;;;;;;8.48;6.75;;;;;;;;;;5074426;28;20400;-74
2021/07/04 06:55:10;;;;;;;8.32;7.50;;;;;;;;;;5056172;28;20024;-74
2021/07/04 06:57:36;;;;;;;7.32;6.65;;;;;;;;;;5056365;28;20017;-74
2021/07/04 07:00:06;;;;;;;8.25;7.45;;;;;;;;;;5056348;28;20024;-74
2021/07/04 07:02:31;;;;;;;8.40;7.80;;;;;;;;;;5072120;28;20488;-75
2021/07/04 07:04:58;;;;;;;8.13;7.43;;;;;;;;;;5075012;28;20045;-74
2021/07/04 07:07:24;;;;;;;8.55;7.85;;;;;;;;;;5076383;28;20255;-74
2021/07/04 07:09:49;;;;;;;7.57;6.88;;;;;;;;;;5075586;28;20456;-73
2021/07/04 07:12:15;;;;;;;7.82;7.07;;;;;;;;;;5075041;28;20092;-74
2021/07/04 07:14:40;;;;;;;7.78;6.97;;;;;;;;;;5074636;28;20021;-73
2021/07/04 07:17:06;;;;;;;7.68;6.80;;;;;;;;;;5075901;28;20031;-74
2021/07/04 07:19:31;;;;;;;6.97;6.30;;;;;;;;;;5075272;28;20115;-73
2021/07/04 07:21:57;;;;;;;7.88;7.28;;;;;;;;;;5066977;28;20021;-74
2021/07/04 07:24:22;;;;;;;9.15;7.43;;;;;;;;;;5073747;28;20041;-74
2021/07/04 07:26:47;;;;;;;7.30;6.60;;;;;;;;;;5071978;28;20396;-73
2021/07/04 07:29:13;;;;;;;8.13;7.53;;;;;;;;;;5072332;28;20019;-74
2021/07/04 07:31:38;;;;;;;8.90;8.13;;;;;;;;;;5071320;28;20368;-74
2021/07/04 07:34:03;;;;;;;8.63;7.72;;;;;;;;;;5072728;28;20146;-74
2021/07/04 07:36:29;;;;;;;7.10;6.50;;;;;;;;;;5068256;28;20017;-74
2021/07/04 07:38:54;;;;;;;7.65;6.95;;;;;;;;;;5072106;28;20025;-74
2021/07/04 07:41:19;;;;;;;6.95;6.38;;;;;;;;;;5068155;28;20052;-74
2021/07/04 07:43:46;;;;;;;12.63;7.63;;;;;;;;;;5070672;28;20032;-73
2021/07/04 07:46:11;;;;;;;8.95;8.23;;;;;;;;;;5071010;28;20259;-73
2021/07/04 07:48:37;;;;;;;10.77;9.83;;;;;;;;;;5074045;28;20453;-73
2021/07/04 07:51:02;;;;;;;8.98;8.18;;;;;;;;;;5072289;28;20694;-73
2021/07/04 07:53:27;;;;;;;9.02;7.78;;;;;;;;;;5073606;28;20078;-73
2021/07/04 07:55:55;;;;;;;8.90;8.10;;;;;;;;;;5074286;28;20486;-73
2021/07/04 07:58:20;;;;;;;9.85;8.88;;;;;;;;;;5071944;28;20026;-73
2021/07/04 08:00:45;;;;;;;9.80;8.95;;;;;;;;;;5072354;28;20028;-73
2021/07/04 08:03:14;;;;;;;9.52;8.73;;;;;;;;;;5074432;28;20429;-73
2021/07/04 08:05:39;;;;;;;13.18;10.30;;;;;;;;;;5071851;28;20051;-73
2021/07/04 08:08:04;;;;;;;8.32;7.63;;;;;;;;;;5074925;28;20433;-81
2021/07/04 08:10:30;;;;;;;9.13;8.18;;;;;;;;;;5069128;28;20082;-78
2021/07/04 08:12:57;;;;;;;10.63;8.30;;;;;;;;;;5068270;28;20032;-80
2021/07/04 08:15:24;;;;;;;8.82;8.20;;;;;;;;;;5071855;28;20310;-80
2021/07/04 08:17:52;;;;;;;9.25;8.30;;;;;;;;;;5072343;28;20029;-81
2021/07/04 08:20:19;;;;;;;7.45;6.85;;;;;;;;;;5074513;28;20020;-80
2021/07/04 08:22:44;;;;;;;8.77;7.97;;;;;;;;;;5073387;28;20013;-79
2021/07/04 08:25:11;;;;;;;7.50;6.80;;;;;;;;;;5074075;28;20036;-80
2021/07/04 08:27:36;;;;;;;8.85;8.25;;;;;;;;;;5070684;28;20021;-78
2021/07/04 08:30:08;;;;;;;8.90;8.20;;;;;;;;;;5074121;28;20108;-79
2021/07/04 08:32:34;;;;;;;8.02;7.43;;;;;;;;;;5074259;28;20031;-90
2021/07/04 08:35:01;;;;;;;7.80;7.20;;;;;;;;;;5073148;28;20028;-85
2021/07/04 08:37:27;;;;;;;7.57;6.97;;;;;;;;;;5071433;28;20444;-81
2021/07/04 08:39:52;;;;;;;7.80;7.10;;;;;;;;;;5069705;28;20021;-83
2021/07/04 08:42:18;;;;;;;7.82;7.22;;;;;;;;;;5066426;28;20028;-82
2021/07/04 08:44:51;;;;;;;8.95;8.23;;;;;;;;;;5074053;28;20027;-83
2021/07/04 08:47:19;;;;;;;8.23;7.57;;;;;;;;;;5072534;28;20461;-85
2021/07/04 08:49:45;;;;;;;8.20;7.60;;;;;;;;;;5072394;28;20173;-85
2021/07/04 08:52:10;;;;;;;8.18;7.57;;;;;;;;;;5071547;28;20016;-85
2021/07/04 08:54:35;;;;;;;7.80;7.20;;;;;;;;;;5056700;28;20035;-85
2021/07/04 08:57:01;;;;;;;7.73;7.03;;;;;;;;;;5053399;28;20248;-83
2021/07/04 08:59:27;;;;;;;8.68;7.97;;;;;;;;;;5066670;28;20274;-84
2021/07/04 09:01:53;;;;;;;8.57;7.97;;;;;;;;;;5073860;28;20345;-87
2021/07/04 09:04:25;;;;;;;9.00;8.18;;;;;;;;;;5061326;28;20013;-83
2021/07/04 09:06:55;;;;;;;8.45;7.75;;;;;;;;;;5053663;28;20315;-83
2021/07/04 09:09:21;;;;;;;9.15;8.35;;;;;;;;;;5053723;28;20029;-83
2021/07/04 09:11:52;;;;;;;8.90;8.13;;;;;;;;;;5060459;28;20403;-85
2021/07/04 09:14:23;;;;;;;8.75;7.90;;;;;;;;;;5073505;28;20423;-85
2021/07/04 09:16:49;;;;;;;7.82;7.13;;;;;;;;;;5072405;28;20051;-87
2021/07/04 09:19:16;;;;;;;9.70;8.90;;;;;;;;;;5074095;28;20071;-83
2021/07/04 09:21:41;;;;;;;8.10;7.30;;;;;;;;;;5064184;28;20107;-87
2021/07/04 09:24:23;;;;;;;9.40;8.23;;;;;;;;;;5073357;28;20416;-80
2021/07/04 09:26:48;;;;;;;9.20;8.30;;;;;;;;;;5072481;28;20262;-82
2021/07/04 09:29:14;;;;;;;13.50;8.90;;;;;;;;;;5073293;28;20021;-88
2021/07/04 09:31:40;;;;;;;8.70;8.10;;;;;;;;;;5073782;28;20029;-84
2021/07/04 09:34:07;;;;;;;8.48;7.88;;;;;;;;;;5073430;28;20037;-84
2021/07/04 09:36:34;;;;;;;7.55;6.90;;;;;;;;;;5073109;28;20085;-82
2021/07/04 09:39:00;;;;;;;8.40;7.70;;;;;;;;;;5072611;28;20395;-81
2021/07/04 09:41:25;;;;;;;8.63;7.75;;;;;;;;;;5072585;28;20024;-83
2021/07/04 09:43:53;;;;;;;9.67;8.40;;;;;;;;;;5073272;28;20310;-84
2021/07/04 09:46:20;;;;;;;11.10;10.20;;;;;;;;;;5073440;28;20255;-84
2021/07/04 09:48:49;;;;;;;10.43;9.40;;;;;;;;;;5056151;28;20036;-69
2021/07/04 09:51:15;;;;;;;11.30;10.15;;;;;;;;;;5052042;28;20151;-70
2021/07/04 09:53:45;;;;;;;10.63;9.52;;;;;;;;;;5051700;28;20120;-69
2021/07/04 09:56:21;;;;;;;10.60;9.50;;;;;;;;;;5056899;28;20012;-70
2021/07/04 09:58:48;;;;;;;11.55;10.32;;;;;;;;;;5066036;28;20020;-70
2021/07/04 10:01:32;;;;;;;9.65;8.75;;;;;;;;;;5072313;28;20017;-70
2021/07/04 10:03:57;;;;;;;7.60;6.90;;;;;;;;;;5072948;28;20051;-69
2021/07/04 10:06:23;;;;;;;8.88;7.97;;;;;;;;;;5072612;28;20129;-69
2021/07/04 10:08:48;;;;;;;5.90;5.43;;;;;;;;;;5072399;28;20353;-69
2021/07/04 10:11:17;;;;;;;5.40;5.00;;;;;;;;;;5071639;28;20731;-70
2021/07/04 10:13:45;;;;;;;6.18;5.88;;;;;;;;;;5072652;28;20024;-70
2021/07/04 10:16:17;;;;;;;6.93;6.38;;;;;;;;;;5071580;28;20052;-69
2021/07/04 10:18:44;;;;;;;6.50;6.10;;;;;;;;;;5056670;28;20445;-69
2021/07/04 10:21:09;;;;;;;5.60;5.20;;;;;;;;;;5071132;28;20090;-70
2021/07/04 10:23:35;;;;;;;5.97;5.57;;;;;;;;;;5071940;28;20029;-70
2021/07/04 10:26:00;;;;;;;4.90;4.50;;;;;;;;;;5072477;28;20009;-71
2021/07/04 10:28:28;;;;;;;6.65;6.07;;;;;;;;;;5071455;28;20035;-70
2021/07/04 10:30:53;;;;;;;6.18;5.55;;;;;;;;;;5067897;28;20021;-70
2021/07/04 10:33:22;;;;;;;6.78;6.28;;;;;;;;;;5067090;28;20027;-70
2021/07/04 10:36:06;;;;;;;6.03;5.45;;;;;;;;;;5072138;28;20029;-69
2021/07/04 10:38:53;;;;;;;6.65;5.20;;;;;;;;;;5054460;28;20025;-77
2021/07/04 10:41:27;;;;;;;5.65;4.80;;;;;;;;;;5052817;28;20025;-76
2021/07/04 10:43:52;;;;;;;6.40;5.95;;;;;;;;;;5066648;28;20032;-76
2021/07/04 10:46:18;;;;;;;6.80;6.20;;;;;;;;;;5072040;28;20034;-76
2021/07/04 10:48:56;;;;;;;5.85;5.35;;;;;;;;;;5072588;28;20686;-76
2021/07/04 10:51:22;;;;;;;5.97;5.50;;;;;;;;;;5070958;28;20028;-76
2021/07/04 10:53:52;;;;;;;6.57;6.05;;;;;;;;;;5072536;28;20020;-76
2021/07/04 10:56:33;;;;;;;5.90;5.40;;;;;;;;;;5072525;28;20027;-76
2021/07/04 10:59:03;;;;;;;6.68;6.18;;;;;;;;;;5066250;28;20009;-75
2021/07/04 11:01:45;;;;;;;7.28;6.68;;;;;;;;;;5069873;28;20055;-76
2021/07/04 11:04:32;;;;;;;5.95;5.55;;;;;;;;;;5071539;28;20020;-76
2021/07/04 11:07:00;;;;;;;6.72;6.13;;;;;;;;;;5061540;28;20345;-76
2021/07/04 11:09:44;;;;;;;5.70;5.30;;;;;;;;;;5074087;28;20035;-76
2021/07/04 11:12:25;;;;;;;5.40;5.00;;;;;;;;;;5076425;28;20054;-76
2021/07/04 11:15:08;;;;;;;5.82;5.43;;;;;;;;;;5066276;28;20024;-71
2021/07/04 11:17:52;;;;;;;6.20;5.80;;;;;;;;;;5075579;28;20132;-69
2021/07/04 11:20:18;;;;;;;5.00;4.60;;;;;;;;;;5075056;28;20035;-69
2021/07/04 11:22:59;;;;;;;5.95;5.55;;;;;;;;;;5059238;28;20016;-69
2021/07/04 11:25:25;;;;;;;6.57;6.07;;;;;;;;;;5075865;28;20020;-68
2021/07/04 11:28:08;;;;;;;6.22;5.72;;;;;;;;;;5071647;28;20437;-68
2021/07/04 11:30:34;;;;;;;8.70;7.90;;;;;;;;;;5074955;28;20060;-68
2021/07/04 11:33:29;;;;;;;7.72;7.10;;;;;;;;;;5075317;28;20389;-68
2021/07/04 11:35:58;;;;;;;6.45;5.95;;;;;;;;;;5049135;28;20457;-69
2021/07/04 11:38:27;;;;;;;6.00;5.25;;;;;;;;;;5070999;28;20023;-69
2021/07/04 11:40:54;;;;;;;7.10;6.50;;;;;;;;;;5075148;28;20048;-68
2021/07/04 11:43:21;;;;;;;6.85;6.25;;;;;;;;;;5073079;28;20361;-68
2021/07/04 11:45:49;;;;;;;6.63;5.15;;;;;;;;;;5067798;28;20059;-79
2021/07/04 11:48:14;;;;;;;7.80;7.20;;;;;;;;;;5075575;28;20094;-79
2021/07/04 11:50:54;;;;;;;6.82;6.13;;;;;;;;;;5068726;28;20461;-79
2021/07/04 11:53:20;;;;;;;6.30;5.70;;;;;;;;;;5073711;28;20025;-79
2021/07/04 11:56:01;;;;;;;10.75;7.32;;;;;;;;;;5075528;28;20115;-79
2021/07/04 11:58:30;;;;;;;8.30;7.60;;;;;;;;;;5074883;28;20512;-79
2021/07/04 12:00:58;;;;;;;7.38;6.78;;;;;;;;;;5075670;28;20436;-79
2021/07/04 12:03:26;;;;;;;7.10;6.40;;;;;;;;;;5075576;28;20043;-79
2021/07/04 12:05:52;;;;;;;7.18;6.18;;;;;;;;;;5075281;28;20115;-79
2021/07/04 12:08:17;;;;;;;6.57;5.97;;;;;;;;;;5071889;28;20104;-78
2021/07/04 12:10:50;;;;;;;6.20;5.03;;;;;;;;;;5072512;28;20085;-78
2021/07/04 12:13:15;;;;;;;6.00;5.50;;;;;;;;;;5062081;28;20353;-78
2021/07/04 12:15:40;;;;;;;7.18;6.18;;;;;;;;;;5075019;28;20084;-79
2021/07/04 12:18:15;;;;;;;6.20;5.70;;;;;;;;;;5074698;28;20106;-78
2021/07/04 12:20:41;;;;;;;5.60;5.10;;;;;;;;;;5074386;28;20386;-78
2021/07/04 12:23:09;;;;;;;6.25;5.65;;;;;;;;;;5073325;28;20044;-79
2021/07/04 12:25:43;;;;;;;6.38;5.78;;;;;;;;;;5074101;28;20034;-78
2021/07/04 12:28:12;;;;;;;6.57;6.07;;;;;;;;;;5072593;28;20012;-78
2021/07/04 12:30:38;;;;;;;6.82;6.30;;;;;;;;;;5073764;28;20456;-79
2021/07/04 12:33:08;;;;;;;6.82;6.22;;;;;;;;;;5072525;28;20585;-78
2021/07/04 12:35:40;;;;;;;6.68;6.18;;;;;;;;;;5073307;28;20117;-78
2021/07/04 12:38:07;;;;;;;6.60;6.10;;;;;;;;;;5073746;28;20302;-77
2021/07/04 12:40:34;;;;;;;6.13;5.63;;;;;;;;;;5072279;28;20499;-79
2021/07/04 12:43:12;;;;;;;6.53;5.95;;;;;;;;;;5071986;28;20036;-79
2021/07/04 12:45:42;;;;;;;6.47;6.05;;;;;;;;;;5068512;28;20020;-78
2021/07/04 12:48:07;;;;;;;5.32;4.93;;;;;;;;;;5072640;28;20032;-79
2021/07/04 12:50:56;;;;;;;6.50;6.10;;;;;;;;;;5070689;28;20012;-79
2021/07/04 12:53:31;;;;;;;5.40;4.97;;;;;;;;;;5058104;28;20033;-76
2021/07/04 12:55:57;;;;;;;6.45;5.95;;;;;;;;;;5070325;28;20035;-76
2021/07/04 12:58:25;;;;;;;6.25;5.75;;;;;;;;;;5068831;28;20048;-76
2021/07/04 13:00:51;;;;;;;7.00;6.30;;;;;;;;;;5067027;28;20107;-76
2021/07/04 13:03:35;;;;;;;6.32;5.82;;;;;;;;;;5068433;28;20024;-75
2021/07/04 13:06:00;;;;;;;5.05;4.65;;;;;;;;;;5070667;28;20041;-76
2021/07/04 13:08:28;;;;;;;6.13;5.53;;;;;;;;;;5069942;28;20024;-77
2021/07/04 13:10:53;;;;;;;6.70;4.97;;;;;;;;;;5072760;28;20099;-77
2021/07/04 13:13:24;;;;;;;7.30;5.20;;;;;;;;;;5100090;28;20079;-77
2021/07/04 13:15:50;;;;;;;7.40;6.65;;;;;;;;;;5072438;28;20399;-78
2021/07/04 13:18:26;;;;;;;7.75;7.05;;;;;;;;;;5069351;28;20107;-78
2021/07/04 13:20:51;;;;;;;;;;;;;;;;;;5072547;28;20008;-78
2021/07/04 13:23:17;;;;;;;5.73;4.67;;;;;;;;;;5070261;28;19913;-76
2021/07/04 13:25:43;;;;;;;5.72;5.28;;;;;;;;;;5070740;28;20021;-77
2021/07/04 13:28:12;;;;;;;6.13;4.85;;;;;;;;;;5070874;28;20027;-76
2021/07/04 13:30:56;;;;;;;5.07;4.50;;;;;;;;;;5071329;28;20414;-77
2021/07/04 13:33:25;;;;;;;4.32;3.80;;;;;;;;;;5065940;28;20467;-71
2021/07/04 13:35:50;;;;;;;4.38;4.00;;;;;;;;;;5065667;28;20429;-85
2021/07/04 13:38:16;;;;;;;5.07;4.47;;;;;;;;;;5064173;28;20029;-81
2021/07/04 13:40:43;;;;;;;6.70;4.75;;;;;;;;;;5060678;28;20449;-81
2021/07/04 13:43:09;;;;;;;13.95;5.05;;;;;;;;;;5053206;28;20021;-72
2021/07/04 13:45:34;;;;;;;5.75;5.20;;;;;;;;;;5064224;28;20048;-72
2021/07/04 13:48:01;;;;;;;5.20;4.68;;;;;;;;;;5071431;28;20036;-71
2021/07/04 13:50:27;;;;;;;5.50;4.90;;;;;;;;;;5062977;28;20357;-72
2021/07/04 13:52:55;;;;;;;8.63;3.70;;;;;;;;;;5071942;28;20082;-71
2021/07/04 13:55:20;;;;;;;3.92;3.00;;;;;;;;;;5071782;28;20460;-71
2021/07/04 13:57:45;;;;;;;4.35;3.65;;;;;;;;;;5058854;28;20029;-73
2021/07/04 14:00:13;;;;;;;4.30;3.90;;;;;;;;;;5053118;28;20356;-71
2021/07/04 14:02:38;;;;;;;3.72;3.42;;;;;;;;;;5053284;28;20313;-71
2021/07/04 14:05:07;;;;;;;5.32;3.83;;;;;;;;;;5052844;28;20060;-70
2021/07/04 14:07:35;;;;;;;4.88;3.00;;;;;;;;;;5053056;28;20063;-71
2021/07/04 14:10:02;;;;;;;3.88;3.20;;;;;;;;;;5053281;28;20510;-72
2021/07/04 14:12:29;;;;;;;6.00;3.40;;;;;;;;;;5053454;28;20029;-71
2021/07/04 14:14:57;;;;;;;4.65;3.47;;;;;;;;;;5085658;28;20104;-71
2021/07/04 14:17:22;;;;;;;3.25;2.95;;;;;;;;;;5052959;28;20091;-71
2021/07/04 14:19:51;;;;;;;2.75;2.55;;;;;;;;;;5064591;28;20020;-71
2021/07/04 14:22:16;;;;;;;4.25;2.90;;;;;;;;;;5072320;28;20082;-71
2021/07/04 14:24:42;;;;;;;3.40;3.10;;;;;;;;;;5070930;28;20025;-71
2021/07/04 14:27:07;;;;;;;3.83;3.53;;;;;;;;;;5072698;28;20445;-71
2021/07/04 14:29:32;;;;;;;4.07;3.78;;;;;;;;;;5073031;28;20024;-71
2021/07/04 14:31:58;;;;;;;5.18;3.70;;;;;;;;;;5068778;28;20025;-71
2021/07/04 14:34:25;;;;;;;2.90;2.70;;;;;;;;;;5069203;28;20070;-72
2021/07/04 14:36:55;;;;;;;2.78;2.58;;;;;;;;;;5068676;28;20024;-72
2021/07/04 14:39:22;;;;;;;3.22;2.65;;;;;;;;;;5074538;28;20020;-72
2021/07/04 14:41:48;;;;;;;2.88;2.67;;;;;;;;;;5075298;28;20378;-71